sensor_id;sensor_type;location;lat;lon;timestamp;temperature;humidity
71237;DHT22;58984;51.960;5.582;2023-03-23T00:02:28;16.10;64.50
71237;DHT22;58984;51.960;5.582;2023-03-23T00:04:55;16.10;64.50
71237;DHT22;58984;51.960;5.582;2023-03-23T00:07:21;16.10;64.30
71237;DHT22;58984;51.960;5.582;2023-03-23T00:09:48;16.10;64.30
71237;DHT22;58984;51.960;5.582;2023-03-23T00:12:23;16.10;64.30
71237;DHT22;58984;51.960;5.582;2023-03-23T00:14:55;16.10;64.20
71237;DHT22;58984;51.960;5.582;2023-03-23T00:17:21;16.20;64.20
71237;DHT22;58984;51.960;5.582;2023-03-23T00:19:49;16.10;64.20
71237;DHT22;58984;51.960;5.582;2023-03-23T00:22:15;16.10;64.20
71237;DHT22;58984;51.960;5.582;2023-03-23T00:24:42;16.10;64.20
71237;DHT22;58984;51.960;5.582;2023-03-23T00:27:09;16.10;64.20
71237;DHT22;58984;51.960;5.582;2023-03-23T00:29:38;16.10;64.20
71237;DHT22;58984;51.960;5.582;2023-03-23T00:32:03;16.10;64.20
71237;DHT22;58984;51.960;5.582;2023-03-23T00:34:29;16.10;64.20
71237;DHT22;58984;51.960;5.582;2023-03-23T00:36:58;16.10;64.20
71237;DHT22;58984;51.960;5.582;2023-03-23T00:39:25;16.20;64.30
71237;DHT22;58984;51.960;5.582;2023-03-23T00:41:52;16.10;64.20
71237;DHT22;58984;51.960;5.582;2023-03-23T00:44:18;16.10;64.30
71237;DHT22;58984;51.960;5.582;2023-03-23T00:46:45;16.10;64.40
71237;DHT22;58984;51.960;5.582;2023-03-23T00:49:17;16.10;64.50
71237;DHT22;58984;51.960;5.582;2023-03-23T00:51:43;16.10;64.50
71237;DHT22;58984;51.960;5.582;2023-03-23T00:54:09;16.20;64.70
71237;DHT22;58984;51.960;5.582;2023-03-23T00:56:35;16.20;64.80
71237;DHT22;58984;51.960;5.582;2023-03-23T00:59:01;16.20;64.70
71237;DHT22;58984;51.960;5.582;2023-03-23T01:01:27;16.20;64.80
71237;DHT22;58984;51.960;5.582;2023-03-23T01:03:52;16.10;64.60
71237;DHT22;58984;51.960;5.582;2023-03-23T01:06:27;16.20;64.70
71237;DHT22;58984;51.960;5.582;2023-03-23T01:08:52;16.10;64.50
71237;DHT22;58984;51.960;5.582;2023-03-23T01:11:19;16.20;64.60
71237;DHT22;58984;51.960;5.582;2023-03-23T01:13:45;16.20;64.50
71237;DHT22;58984;51.960;5.582;2023-03-23T01:16:12;16.20;64.40
71237;DHT22;58984;51.960;5.582;2023-03-23T01:18:38;16.10;64.40
71237;DHT22;58984;51.960;5.582;2023-03-23T01:21:13;16.20;64.40
71237;DHT22;58984;51.960;5.582;2023-03-23T01:23:40;16.10;64.20
71237;DHT22;58984;51.960;5.582;2023-03-23T01:26:14;16.10;64.10
71237;DHT22;58984;51.960;5.582;2023-03-23T01:28:41;16.10;64.20
71237;DHT22;58984;51.960;5.582;2023-03-23T01:31:12;16.10;64.10
71237;DHT22;58984;51.960;5.582;2023-03-23T01:33:38;16.10;64.10
71237;DHT22;58984;51.960;5.582;2023-03-23T01:36:16;16.10;64.00
71237;DHT22;58984;51.960;5.582;2023-03-23T01:38:43;16.10;64.10
71237;DHT22;58984;51.960;5.582;2023-03-23T01:41:10;16.10;64.10
71237;DHT22;58984;51.960;5.582;2023-03-23T01:43:53;16.10;64.00
71237;DHT22;58984;51.960;5.582;2023-03-23T01:46:18;16.10;64.00
71237;DHT22;58984;51.960;5.582;2023-03-23T01:48:44;16.20;64.00
71237;DHT22;58984;51.960;5.582;2023-03-23T01:51:14;16.20;63.70
71237;DHT22;58984;51.960;5.582;2023-03-23T01:53:45;16.10;63.80
71237;DHT22;58984;51.960;5.582;2023-03-23T01:56:12;16.20;63.90
71237;DHT22;58984;51.960;5.582;2023-03-23T01:58:40;16.10;63.90
71237;DHT22;58984;51.960;5.582;2023-03-23T02:01:10;16.10;64.00
71237;DHT22;58984;51.960;5.582;2023-03-23T02:03:39;16.10;64.00
71237;DHT22;58984;51.960;5.582;2023-03-23T02:06:05;16.10;64.10
71237;DHT22;58984;51.960;5.582;2023-03-23T02:08:32;16.10;64.10
71237;DHT22;58984;51.960;5.582;2023-03-23T02:10:59;16.10;64.20
71237;DHT22;58984;51.960;5.582;2023-03-23T02:13:26;16.10;64.20
71237;DHT22;58984;51.960;5.582;2023-03-23T02:16:10;16.10;64.20
71237;DHT22;58984;51.960;5.582;2023-03-23T02:27:49;16.10;64.20
71237;DHT22;58984;51.960;5.582;2023-03-23T02:38:22;16.10;64.10
71237;DHT22;58984;51.960;5.582;2023-03-23T02:40:50;16.10;64.20
71237;DHT22;58984;51.960;5.582;2023-03-23T02:43:22;16.10;64.30
71237;DHT22;58984;51.960;5.582;2023-03-23T02:45:50;16.10;64.30
71237;DHT22;58984;51.960;5.582;2023-03-23T02:48:20;16.10;64.30
71237;DHT22;58984;51.960;5.582;2023-03-23T02:50:51;16.10;64.30
71237;DHT22;58984;51.960;5.582;2023-03-23T02:53:23;16.10;64.30
71237;DHT22;58984;51.960;5.582;2023-03-23T02:55:50;16.10;64.20
71237;DHT22;58984;51.960;5.582;2023-03-23T02:58:19;16.10;64.20
71237;DHT22;58984;51.960;5.582;2023-03-23T03:00:45;16.10;64.20
71237;DHT22;58984;51.960;5.582;2023-03-23T03:03:17;16.10;64.30
71237;DHT22;58984;51.960;5.582;2023-03-23T03:11:16;16.10;64.10
71237;DHT22;58984;51.960;5.582;2023-03-23T03:13:56;16.10;64.10
71237;DHT22;58984;51.960;5.582;2023-03-23T03:16:27;16.10;64.20
71237;DHT22;58984;51.960;5.582;2023-03-23T03:18:56;16.20;64.20
71237;DHT22;58984;51.960;5.582;2023-03-23T03:21:27;16.10;64.20
71237;DHT22;58984;51.960;5.582;2023-03-23T03:23:55;16.10;64.10
71237;DHT22;58984;51.960;5.582;2023-03-23T03:26:25;16.10;64.10
71237;DHT22;58984;51.960;5.582;2023-03-23T03:28:53;16.10;64.10
71237;DHT22;58984;51.960;5.582;2023-03-23T03:31:26;16.10;64.20
71237;DHT22;58984;51.960;5.582;2023-03-23T03:33:53;16.10;64.10
71237;DHT22;58984;51.960;5.582;2023-03-23T03:36:23;16.10;64.10
71237;DHT22;58984;51.960;5.582;2023-03-23T03:38:51;16.10;64.20
71237;DHT22;58984;51.960;5.582;2023-03-23T03:41:18;16.10;64.20
71237;DHT22;58984;51.960;5.582;2023-03-23T03:43:44;16.10;64.10
71237;DHT22;58984;51.960;5.582;2023-03-23T03:46:10;16.10;64.10
71237;DHT22;58984;51.960;5.582;2023-03-23T03:48:35;16.10;64.10
71237;DHT22;58984;51.960;5.582;2023-03-23T03:51:01;16.20;64.20
71237;DHT22;58984;51.960;5.582;2023-03-23T03:53:28;16.20;64.30
71237;DHT22;58984;51.960;5.582;2023-03-23T03:55:53;16.20;64.30
71237;DHT22;58984;51.960;5.582;2023-03-23T03:58:28;16.20;64.30
71237;DHT22;58984;51.960;5.582;2023-03-23T04:00:58;16.20;64.30
71237;DHT22;58984;51.960;5.582;2023-03-23T04:03:24;16.20;64.30
71237;DHT22;58984;51.960;5.582;2023-03-23T04:05:51;16.20;64.30
71237;DHT22;58984;51.960;5.582;2023-03-23T04:08:16;16.20;64.30
71237;DHT22;58984;51.960;5.582;2023-03-23T04:10:43;16.20;64.30
71237;DHT22;58984;51.960;5.582;2023-03-23T04:13:08;16.20;64.30
71237;DHT22;58984;51.960;5.582;2023-03-23T04:15:34;16.20;64.30
71237;DHT22;58984;51.960;5.582;2023-03-23T04:17:59;16.20;64.30
71237;DHT22;58984;51.960;5.582;2023-03-23T04:20:25;16.20;64.30
71237;DHT22;58984;51.960;5.582;2023-03-23T04:22:51;16.20;64.30
71237;DHT22;58984;51.960;5.582;2023-03-23T04:25:20;16.20;64.30
71237;DHT22;58984;51.960;5.582;2023-03-23T04:27:47;16.20;64.30
71237;DHT22;58984;51.960;5.582;2023-03-23T04:30:21;16.20;64.30
71237;DHT22;58984;51.960;5.582;2023-03-23T04:32:48;16.20;64.20
71237;DHT22;58984;51.960;5.582;2023-03-23T04:35:22;16.20;64.20
71237;DHT22;58984;51.960;5.582;2023-03-23T04:37:50;16.30;64.30
71237;DHT22;58984;51.960;5.582;2023-03-23T04:40:17;16.30;64.30
71237;DHT22;58984;51.960;5.582;2023-03-23T04:42:44;16.20;64.30
71237;DHT22;58984;51.960;5.582;2023-03-23T04:45:17;16.20;65.00
71237;DHT22;58984;51.960;5.582;2023-03-23T04:47:50;16.20;64.20
71237;DHT22;58984;51.960;5.582;2023-03-23T04:50:21;16.20;64.20
71237;DHT22;58984;51.960;5.582;2023-03-23T04:52:49;16.20;64.10
71237;DHT22;58984;51.960;5.582;2023-03-23T04:55:17;16.20;64.90
71237;DHT22;58984;51.960;5.582;2023-03-23T04:57:44;16.20;64.20
71237;DHT22;58984;51.960;5.582;2023-03-23T05:00:11;16.20;64.10
71237;DHT22;58984;51.960;5.582;2023-03-23T05:02:42;16.30;64.10
71237;DHT22;58984;51.960;5.582;2023-03-23T05:05:10;16.30;64.20
71237;DHT22;58984;51.960;5.582;2023-03-23T05:07:41;16.20;64.10
71237;DHT22;58984;51.960;5.582;2023-03-23T05:10:09;16.20;64.10
71237;DHT22;58984;51.960;5.582;2023-03-23T05:12:35;16.20;64.00
71237;DHT22;58984;51.960;5.582;2023-03-23T05:15:02;16.30;64.10
71237;DHT22;58984;51.960;5.582;2023-03-23T05:17:27;16.20;63.90
71237;DHT22;58984;51.960;5.582;2023-03-23T05:19:55;16.30;64.10
71237;DHT22;58984;51.960;5.582;2023-03-23T05:22:22;16.30;64.10
71237;DHT22;58984;51.960;5.582;2023-03-23T05:24:48;16.30;64.10
71237;DHT22;58984;51.960;5.582;2023-03-23T05:27:17;16.30;64.10
71237;DHT22;58984;51.960;5.582;2023-03-23T05:29:45;16.20;64.00
71237;DHT22;58984;51.960;5.582;2023-03-23T05:32:14;16.30;64.00
71237;DHT22;58984;51.960;5.582;2023-03-23T05:34:40;16.30;64.00
71237;DHT22;58984;51.960;5.582;2023-03-23T05:37:05;16.30;64.00
71237;DHT22;58984;51.960;5.582;2023-03-23T05:39:31;16.30;64.00
71237;DHT22;58984;51.960;5.582;2023-03-23T05:41:58;16.30;64.00
71237;DHT22;58984;51.960;5.582;2023-03-23T05:44:23;16.30;63.90
71237;DHT22;58984;51.960;5.582;2023-03-23T05:46:49;16.30;64.00
71237;DHT22;58984;51.960;5.582;2023-03-23T05:49:16;16.30;64.00
71237;DHT22;58984;51.960;5.582;2023-03-23T05:51:42;16.30;64.00
71237;DHT22;58984;51.960;5.582;2023-03-23T05:54:09;16.30;64.00
71237;DHT22;58984;51.960;5.582;2023-03-23T05:56:36;16.30;63.90
71237;DHT22;58984;51.960;5.582;2023-03-23T05:59:01;16.30;64.00
71237;DHT22;58984;51.960;5.582;2023-03-23T06:01:28;16.30;63.90
71237;DHT22;58984;51.960;5.582;2023-03-23T06:03:53;16.30;63.80
71237;DHT22;58984;51.960;5.582;2023-03-23T06:06:24;16.30;63.70
71237;DHT22;58984;51.960;5.582;2023-03-23T06:08:50;16.30;63.90
71237;DHT22;58984;51.960;5.582;2023-03-23T06:11:16;16.30;63.90
71237;DHT22;58984;51.960;5.582;2023-03-23T06:13:41;16.30;63.80
71237;DHT22;58984;51.960;5.582;2023-03-23T06:16:07;16.30;63.90
71237;DHT22;58984;51.960;5.582;2023-03-23T06:18:34;16.30;63.80
71237;DHT22;58984;51.960;5.582;2023-03-23T06:21:05;16.30;63.90
71237;DHT22;58984;51.960;5.582;2023-03-23T06:23:31;16.30;63.90
71237;DHT22;58984;51.960;5.582;2023-03-23T06:25:59;16.30;63.90
71237;DHT22;58984;51.960;5.582;2023-03-23T06:28:25;16.30;63.90
71237;DHT22;58984;51.960;5.582;2023-03-23T06:30:50;16.30;63.90
71237;DHT22;58984;51.960;5.582;2023-03-23T06:33:16;16.30;64.00
71237;DHT22;58984;51.960;5.582;2023-03-23T06:35:42;16.30;63.80
71237;DHT22;58984;51.960;5.582;2023-03-23T06:38:08;16.30;63.90
71237;DHT22;58984;51.960;5.582;2023-03-23T06:40:34;16.30;63.90
71237;DHT22;58984;51.960;5.582;2023-03-23T06:43:03;16.30;63.90
71237;DHT22;58984;51.960;5.582;2023-03-23T06:45:30;16.30;63.90
71237;DHT22;58984;51.960;5.582;2023-03-23T06:47:55;16.30;63.90
71237;DHT22;58984;51.960;5.582;2023-03-23T06:50:21;16.30;63.90
71237;DHT22;58984;51.960;5.582;2023-03-23T06:52:48;16.30;63.90
71237;DHT22;58984;51.960;5.582;2023-03-23T06:55:14;16.30;63.90
71237;DHT22;58984;51.960;5.582;2023-03-23T06:57:40;16.30;63.90
71237;DHT22;58984;51.960;5.582;2023-03-23T07:00:08;16.30;63.90
71237;DHT22;58984;51.960;5.582;2023-03-23T07:02:37;16.30;63.90
71237;DHT22;58984;51.960;5.582;2023-03-23T07:05:03;16.30;63.90
71237;DHT22;58984;51.960;5.582;2023-03-23T07:07:29;16.30;63.80
71237;DHT22;58984;51.960;5.582;2023-03-23T07:09:55;16.30;63.90
71237;DHT22;58984;51.960;5.582;2023-03-23T07:12:21;16.30;63.90
71237;DHT22;58984;51.960;5.582;2023-03-23T07:14:47;16.30;63.90
71237;DHT22;58984;51.960;5.582;2023-03-23T07:17:12;16.40;64.00
71237;DHT22;58984;51.960;5.582;2023-03-23T07:19:39;16.30;64.00
71237;DHT22;58984;51.960;5.582;2023-03-23T07:22:06;16.30;64.00
71237;DHT22;58984;51.960;5.582;2023-03-23T07:24:33;16.40;64.10
71237;DHT22;58984;51.960;5.582;2023-03-23T07:26:59;16.40;64.00
71237;DHT22;58984;51.960;5.582;2023-03-23T07:29:25;16.40;64.10
71237;DHT22;58984;51.960;5.582;2023-03-23T07:31:51;16.40;64.00
71237;DHT22;58984;51.960;5.582;2023-03-23T07:34:18;16.30;64.00
71237;DHT22;58984;51.960;5.582;2023-03-23T07:36:44;16.30;64.00
71237;DHT22;58984;51.960;5.582;2023-03-23T07:39:10;16.30;64.00
71237;DHT22;58984;51.960;5.582;2023-03-23T07:41:35;16.40;64.10
71237;DHT22;58984;51.960;5.582;2023-03-23T07:44:01;16.40;64.10
71237;DHT22;58984;51.960;5.582;2023-03-23T07:46:27;16.40;64.10
71237;DHT22;58984;51.960;5.582;2023-03-23T07:48:52;16.40;64.10
71237;DHT22;58984;51.960;5.582;2023-03-23T07:51:18;16.40;64.10
71237;DHT22;58984;51.960;5.582;2023-03-23T07:53:44;16.40;64.20
71237;DHT22;58984;51.960;5.582;2023-03-23T07:56:14;16.40;64.20
71237;DHT22;58984;51.960;5.582;2023-03-23T07:58:41;16.30;64.20
71237;DHT22;58984;51.960;5.582;2023-03-23T08:01:07;16.40;64.40
71237;DHT22;58984;51.960;5.582;2023-03-23T08:03:33;16.40;64.40
71237;DHT22;58984;51.960;5.582;2023-03-23T08:05:59;16.40;64.50
71237;DHT22;58984;51.960;5.582;2023-03-23T08:08:25;16.40;64.40
71237;DHT22;58984;51.960;5.582;2023-03-23T08:10:51;16.40;64.60
71237;DHT22;58984;51.960;5.582;2023-03-23T08:13:17;16.40;64.50
71237;DHT22;58984;51.960;5.582;2023-03-23T08:15:44;16.40;64.50
71237;DHT22;58984;51.960;5.582;2023-03-23T08:18:09;16.40;64.50
71237;DHT22;58984;51.960;5.582;2023-03-23T08:20:35;16.40;65.50
71237;DHT22;58984;51.960;5.582;2023-03-23T08:23:02;16.40;64.70
71237;DHT22;58984;51.960;5.582;2023-03-23T08:25:29;16.40;64.70
71237;DHT22;58984;51.960;5.582;2023-03-23T08:27:57;16.40;64.70
71237;DHT22;58984;51.960;5.582;2023-03-23T08:30:23;16.40;64.70
71237;DHT22;58984;51.960;5.582;2023-03-23T08:32:50;16.30;64.60
71237;DHT22;58984;51.960;5.582;2023-03-23T08:35:17;16.40;64.70
71237;DHT22;58984;51.960;5.582;2023-03-23T08:37:43;16.40;64.70
71237;DHT22;58984;51.960;5.582;2023-03-23T08:40:11;16.30;64.50
71237;DHT22;58984;51.960;5.582;2023-03-23T08:42:38;16.30;64.50
71237;DHT22;58984;51.960;5.582;2023-03-23T08:45:09;16.30;64.50
71237;DHT22;58984;51.960;5.582;2023-03-23T08:47:35;16.30;64.40
71237;DHT22;58984;51.960;5.582;2023-03-23T08:50:02;16.30;64.30
71237;DHT22;58984;51.960;5.582;2023-03-23T08:52:29;16.40;64.80
71237;DHT22;58984;51.960;5.582;2023-03-23T08:54:55;16.30;64.40
71237;DHT22;58984;51.960;5.582;2023-03-23T08:57:22;16.30;64.30
71237;DHT22;58984;51.960;5.582;2023-03-23T08:59:48;16.30;64.30
71237;DHT22;58984;51.960;5.582;2023-03-23T09:02:14;16.40;64.40
71237;DHT22;58984;51.960;5.582;2023-03-23T09:04:40;16.40;64.40
71237;DHT22;58984;51.960;5.582;2023-03-23T09:07:09;16.40;64.30
71237;DHT22;58984;51.960;5.582;2023-03-23T09:09:34;16.30;64.30
71237;DHT22;58984;51.960;5.582;2023-03-23T09:12:00;16.40;64.30
71237;DHT22;58984;51.960;5.582;2023-03-23T09:14:26;16.30;64.30
71237;DHT22;58984;51.960;5.582;2023-03-23T09:16:52;16.40;63.90
71237;DHT22;58984;51.960;5.582;2023-03-23T09:19:18;16.40;64.50
71237;DHT22;58984;51.960;5.582;2023-03-23T09:21:43;16.40;64.40
71237;DHT22;58984;51.960;5.582;2023-03-23T09:24:10;16.40;64.40
71237;DHT22;58984;51.960;5.582;2023-03-23T09:26:36;16.40;64.40
71237;DHT22;58984;51.960;5.582;2023-03-23T09:29:02;16.50;64.50
71237;DHT22;58984;51.960;5.582;2023-03-23T09:31:28;16.50;64.40
71237;DHT22;58984;51.960;5.582;2023-03-23T09:33:54;16.50;64.40
71237;DHT22;58984;51.960;5.582;2023-03-23T09:36:22;16.50;64.30
71237;DHT22;58984;51.960;5.582;2023-03-23T09:38:49;16.60;64.30
71237;DHT22;58984;51.960;5.582;2023-03-23T09:47:38;16.60;64.30
71237;DHT22;58984;51.960;5.582;2023-03-23T09:50:30;16.70;64.30
71237;DHT22;58984;51.960;5.582;2023-03-23T09:53:13;16.70;64.30
71237;DHT22;58984;51.960;5.582;2023-03-23T09:55:40;16.70;64.30
71237;DHT22;58984;51.960;5.582;2023-03-23T09:58:28;16.80;64.30
71237;DHT22;58984;51.960;5.582;2023-03-23T10:01:33;16.70;64.50
71237;DHT22;58984;51.960;5.582;2023-03-23T10:04:28;16.80;64.90
71237;DHT22;58984;51.960;5.582;2023-03-23T10:07:06;16.80;65.00
71237;DHT22;58984;51.960;5.582;2023-03-23T10:09:35;16.80;64.80
71237;DHT22;58984;51.960;5.582;2023-03-23T10:12:27;16.90;65.00
71237;DHT22;58984;51.960;5.582;2023-03-23T10:18:01;17.10;65.20
71237;DHT22;58984;51.960;5.582;2023-03-23T10:25:56;17.20;65.60
71237;DHT22;58984;51.960;5.582;2023-03-23T10:28:40;17.30;65.60
71237;DHT22;58984;51.960;5.582;2023-03-23T10:31:11;17.30;65.70
71237;DHT22;58984;51.960;5.582;2023-03-23T10:33:46;17.40;65.50
71237;DHT22;58984;51.960;5.582;2023-03-23T10:36:23;17.50;65.60
71237;DHT22;58984;51.960;5.582;2023-03-23T10:39:12;17.50;65.10
71237;DHT22;58984;51.960;5.582;2023-03-23T10:41:39;17.50;65.30
71237;DHT22;58984;51.960;5.582;2023-03-23T10:44:21;17.60;65.10
71237;DHT22;58984;51.960;5.582;2023-03-23T10:49:39;17.70;65.10
71237;DHT22;58984;51.960;5.582;2023-03-23T10:52:34;17.70;65.00
71237;DHT22;58984;51.960;5.582;2023-03-23T10:57:37;17.80;64.50
71237;DHT22;58984;51.960;5.582;2023-03-23T11:00:07;17.90;64.40
71237;DHT22;58984;51.960;5.582;2023-03-23T11:02:59;18.00;64.70
71237;DHT22;58984;51.960;5.582;2023-03-23T11:05:36;17.90;64.50
71237;DHT22;58984;51.960;5.582;2023-03-23T11:08:03;18.00;64.20
71237;DHT22;58984;51.960;5.582;2023-03-23T11:10:37;18.10;64.30
71237;DHT22;58984;51.960;5.582;2023-03-23T11:13:03;18.10;64.30
71237;DHT22;58984;51.960;5.582;2023-03-23T11:15:49;18.10;64.00
71237;DHT22;58984;51.960;5.582;2023-03-23T11:18:21;18.10;64.10
71237;DHT22;58984;51.960;5.582;2023-03-23T11:20:52;18.20;63.60
71237;DHT22;58984;51.960;5.582;2023-03-23T11:28:20;18.30;63.20
71237;DHT22;58984;51.960;5.582;2023-03-23T11:30:46;18.30;63.30
71237;DHT22;58984;51.960;5.582;2023-03-23T11:33:12;18.30;63.30
71237;DHT22;58984;51.960;5.582;2023-03-23T11:35:44;18.30;63.30
71237;DHT22;58984;51.960;5.582;2023-03-23T11:38:17;18.30;63.40
71237;DHT22;58984;51.960;5.582;2023-03-23T11:40:48;18.30;63.30
71237;DHT22;58984;51.960;5.582;2023-03-23T11:43:19;18.30;63.30
71237;DHT22;58984;51.960;5.582;2023-03-23T11:45:54;18.30;63.00
71237;DHT22;58984;51.960;5.582;2023-03-23T11:48:40;18.30;62.90
71237;DHT22;58984;51.960;5.582;2023-03-23T11:51:15;18.30;63.70
71237;DHT22;58984;51.960;5.582;2023-03-23T11:56:33;18.30;63.00
71237;DHT22;58984;51.960;5.582;2023-03-23T11:58:59;18.30;63.20
71237;DHT22;58984;51.960;5.582;2023-03-23T12:04:50;18.40;63.10
71237;DHT22;58984;51.960;5.582;2023-03-23T12:15:36;18.50;62.80
71237;DHT22;58984;51.960;5.582;2023-03-23T12:18:21;18.30;62.70
71237;DHT22;58984;51.960;5.582;2023-03-23T12:26:15;18.50;62.70
71237;DHT22;58984;51.960;5.582;2023-03-23T12:29:18;18.40;62.80
71237;DHT22;58984;51.960;5.582;2023-03-23T12:34:25;18.40;62.70
71237;DHT22;58984;51.960;5.582;2023-03-23T12:43:08;18.30;62.80
71237;DHT22;58984;51.960;5.582;2023-03-23T12:48:07;18.30;62.90
71237;DHT22;58984;51.960;5.582;2023-03-23T12:53:05;18.30;63.10
71237;DHT22;58984;51.960;5.582;2023-03-23T12:55:41;18.30;63.10
71237;DHT22;58984;51.960;5.582;2023-03-23T12:58:17;18.30;63.00
71237;DHT22;58984;51.960;5.582;2023-03-23T13:00:55;18.30;63.00
71237;DHT22;58984;51.960;5.582;2023-03-23T13:06:00;18.30;63.00
71237;DHT22;58984;51.960;5.582;2023-03-23T13:08:41;18.20;62.90
71237;DHT22;58984;51.960;5.582;2023-03-23T13:11:31;18.20;62.90
71237;DHT22;58984;51.960;5.582;2023-03-23T13:14:23;18.20;62.90
71237;DHT22;58984;51.960;5.582;2023-03-23T13:22:18;18.20;63.20
71237;DHT22;58984;51.960;5.582;2023-03-23T13:24:56;18.10;63.10
71237;DHT22;58984;51.960;5.582;2023-03-23T13:27:24;18.20;63.30
71237;DHT22;58984;51.960;5.582;2023-03-23T13:29:53;18.30;63.30
71237;DHT22;58984;51.960;5.582;2023-03-23T13:32:19;18.30;63.40
71237;DHT22;58984;51.960;5.582;2023-03-23T13:34:48;18.30;63.50
71237;DHT22;58984;51.960;5.582;2023-03-23T13:37:23;18.30;63.40
71237;DHT22;58984;51.960;5.582;2023-03-23T13:42:29;18.50;63.70
71237;DHT22;58984;51.960;5.582;2023-03-23T13:45:24;18.50;63.70
71237;DHT22;58984;51.960;5.582;2023-03-23T13:48:18;18.50;63.70
71237;DHT22;58984;51.960;5.582;2023-03-23T13:51:04;18.60;63.30
71237;DHT22;58984;51.960;5.582;2023-03-23T13:53:30;18.50;63.50
71237;DHT22;58984;51.960;5.582;2023-03-23T13:56:31;18.60;63.20
71237;DHT22;58984;51.960;5.582;2023-03-23T13:59:07;18.60;63.10
71237;DHT22;58984;51.960;5.582;2023-03-23T14:01:35;18.60;63.20
71237;DHT22;58984;51.960;5.582;2023-03-23T14:04:05;18.60;63.00
71237;DHT22;58984;51.960;5.582;2023-03-23T14:06:35;18.60;63.10
71237;DHT22;58984;51.960;5.582;2023-03-23T14:09:30;18.60;63.10
71237;DHT22;58984;51.960;5.582;2023-03-23T14:12:03;18.50;63.10
71237;DHT22;58984;51.960;5.582;2023-03-23T14:14:59;18.60;63.00
71237;DHT22;58984;51.960;5.582;2023-03-23T14:17:31;18.60;63.10
71237;DHT22;58984;51.960;5.582;2023-03-23T14:19:58;18.60;63.00
71237;DHT22;58984;51.960;5.582;2023-03-23T14:22:42;18.60;63.00
71237;DHT22;58984;51.960;5.582;2023-03-23T14:25:16;18.50;62.90
71237;DHT22;58984;51.960;5.582;2023-03-23T14:27:43;18.50;62.50
71237;DHT22;58984;51.960;5.582;2023-03-23T14:30:18;18.60;62.50
71237;DHT22;58984;51.960;5.582;2023-03-23T14:32:44;18.50;63.20
71237;DHT22;58984;51.960;5.582;2023-03-23T14:35:26;18.60;62.40
71237;DHT22;58984;51.960;5.582;2023-03-23T14:37:53;18.50;62.60
71237;DHT22;58984;51.960;5.582;2023-03-23T14:40:20;18.60;62.50
71237;DHT22;58984;51.960;5.582;2023-03-23T14:42:46;18.60;62.50
71237;DHT22;58984;51.960;5.582;2023-03-23T14:45:16;18.60;62.40
71237;DHT22;58984;51.960;5.582;2023-03-23T14:48:02;18.60;63.20
71237;DHT22;58984;51.960;5.582;2023-03-23T14:50:40;18.50;62.40
71237;DHT22;58984;51.960;5.582;2023-03-23T14:53:32;18.60;62.50
71237;DHT22;58984;51.960;5.582;2023-03-23T14:56:01;18.60;62.50
71237;DHT22;58984;51.960;5.582;2023-03-23T14:58:29;18.60;62.30
71237;DHT22;58984;51.960;5.582;2023-03-23T15:00:59;18.60;62.50
71237;DHT22;58984;51.960;5.582;2023-03-23T15:03:28;18.60;62.50
71237;DHT22;58984;51.960;5.582;2023-03-23T15:05:59;18.70;62.70
71237;DHT22;58984;51.960;5.582;2023-03-23T15:08:30;18.60;62.40
71237;DHT22;58984;51.960;5.582;2023-03-23T15:11:23;18.60;62.20
71237;DHT22;58984;51.960;5.582;2023-03-23T15:13:52;18.60;62.40
71237;DHT22;58984;51.960;5.582;2023-03-23T15:16:27;18.70;62.30
71237;DHT22;58984;51.960;5.582;2023-03-23T15:21:33;18.60;62.00
71237;DHT22;58984;51.960;5.582;2023-03-23T15:24:17;18.60;62.30
71237;DHT22;58984;51.960;5.582;2023-03-23T15:26:44;18.60;62.10
71237;DHT22;58984;51.960;5.582;2023-03-23T15:29:12;18.60;62.10
71237;DHT22;58984;51.960;5.582;2023-03-23T15:31:53;18.60;62.20
71237;DHT22;58984;51.960;5.582;2023-03-23T15:34:34;18.60;62.20
71237;DHT22;58984;51.960;5.582;2023-03-23T15:37:18;18.60;62.40
71237;DHT22;58984;51.960;5.582;2023-03-23T15:39:45;18.60;62.10
71237;DHT22;58984;51.960;5.582;2023-03-23T15:42:30;18.60;62.20
71237;DHT22;58984;51.960;5.582;2023-03-23T15:45:26;18.50;62.10
71237;DHT22;58984;51.960;5.582;2023-03-23T15:47:52;18.60;62.20
71237;DHT22;58984;51.960;5.582;2023-03-23T15:50:34;18.60;62.00
71237;DHT22;58984;51.960;5.582;2023-03-23T15:53:17;18.50;62.00
71237;DHT22;58984;51.960;5.582;2023-03-23T15:55:43;18.50;62.00
71237;DHT22;58984;51.960;5.582;2023-03-23T15:58:11;18.60;62.10
71237;DHT22;58984;51.960;5.582;2023-03-23T16:00:37;18.60;62.10
71237;DHT22;58984;51.960;5.582;2023-03-23T16:03:05;18.60;62.20
71237;DHT22;58984;51.960;5.582;2023-03-23T16:05:32;18.60;62.20
71237;DHT22;58984;51.960;5.582;2023-03-23T16:07:58;18.60;62.20
71237;DHT22;58984;51.960;5.582;2023-03-23T16:10:25;18.60;62.20
71237;DHT22;58984;51.960;5.582;2023-03-23T16:12:51;18.50;62.00
71237;DHT22;58984;51.960;5.582;2023-03-23T16:15:18;18.60;62.20
71237;DHT22;58984;51.960;5.582;2023-03-23T16:17:44;18.60;62.20
71237;DHT22;58984;51.960;5.582;2023-03-23T16:20:12;18.60;62.00
71237;DHT22;58984;51.960;5.582;2023-03-23T16:22:38;18.60;61.80
71237;DHT22;58984;51.960;5.582;2023-03-23T16:25:03;18.60;62.10
71237;DHT22;58984;51.960;5.582;2023-03-23T16:27:29;18.60;61.80
71237;DHT22;58984;51.960;5.582;2023-03-23T16:29:55;18.60;61.70
71237;DHT22;58984;51.960;5.582;2023-03-23T16:32:21;18.60;61.80
71237;DHT22;58984;51.960;5.582;2023-03-23T16:34:47;18.60;61.70
71237;DHT22;58984;51.960;5.582;2023-03-23T16:37:13;18.50;61.50
71237;DHT22;58984;51.960;5.582;2023-03-23T16:39:38;18.60;61.40
71237;DHT22;58984;51.960;5.582;2023-03-23T16:42:04;18.60;61.30
71237;DHT22;58984;51.960;5.582;2023-03-23T16:44:30;18.60;61.30
71237;DHT22;58984;51.960;5.582;2023-03-23T16:46:55;18.50;61.20
71237;DHT22;58984;51.960;5.582;2023-03-23T16:49:21;18.50;61.20
71237;DHT22;58984;51.960;5.582;2023-03-23T16:51:46;18.50;60.90
71237;DHT22;58984;51.960;5.582;2023-03-23T16:54:12;18.50;60.70
71237;DHT22;58984;51.960;5.582;2023-03-23T16:56:38;18.50;60.90
71237;DHT22;58984;51.960;5.582;2023-03-23T16:59:03;18.50;60.80
71237;DHT22;58984;51.960;5.582;2023-03-23T17:01:29;18.50;60.80
71237;DHT22;58984;51.960;5.582;2023-03-23T17:03:54;18.50;60.90
71237;DHT22;58984;51.960;5.582;2023-03-23T17:06:20;18.50;60.80
71237;DHT22;58984;51.960;5.582;2023-03-23T17:08:46;18.50;60.90
71237;DHT22;58984;51.960;5.582;2023-03-23T17:11:11;18.50;60.80
71237;DHT22;58984;51.960;5.582;2023-03-23T17:13:37;18.50;60.70
71237;DHT22;58984;51.960;5.582;2023-03-23T17:16:03;18.40;60.50
71237;DHT22;58984;51.960;5.582;2023-03-23T17:18:28;18.50;60.70
71237;DHT22;58984;51.960;5.582;2023-03-23T17:20:54;18.40;60.70
71237;DHT22;58984;51.960;5.582;2023-03-23T17:23:20;18.40;60.80